sensor_id;sensor_type;location;lat;lon;timestamp;pressure;altitude;pressure_sealevel;temperature;humidity
40918;BME280;26644;50.248;19.032;2023-08-21T00:01:06;98689.97;;;22.50;76.82
40918;BME280;26644;50.248;19.032;2023-08-21T00:04:10;98677.16;;;22.49;76.71
40918;BME280;26644;50.248;19.032;2023-08-21T00:07:15;98672.59;;;22.44;76.63
40918;BME280;26644;50.248;19.032;2023-08-21T00:10:19;98684.94;;;22.43;77.08
40918;BME280;26644;50.248;19.032;2023-08-21T00:13:27;98680.31;;;22.35;77.21
40918;BME280;26644;50.248;19.032;2023-08-21T00:16:31;98676.59;;;22.31;77.52
40918;BME280;26644;50.248;19.032;2023-08-21T00:19:36;98666.13;;;22.28;76.59
40918;BME280;26644;50.248;19.032;2023-08-21T00:22:40;98675.19;;;22.37;76.25
40918;BME280;26644;50.248;19.032;2023-08-21T00:25:46;98672.38;;;22.37;76.81
40918;BME280;26644;50.248;19.032;2023-08-21T00:28:54;98676.09;;;22.41;76.26
40918;BME280;26644;50.248;19.032;2023-08-21T00:31:59;98661.28;;;22.40;75.97
40918;BME280;26644;50.248;19.032;2023-08-21T00:35:04;98660.28;;;22.33;76.16
40918;BME280;26644;50.248;19.032;2023-08-21T00:38:09;98654.22;;;22.31;76.04
40918;BME280;26644;50.248;19.032;2023-08-21T00:41:13;98671.78;;;22.31;76.23
40918;BME280;26644;50.248;19.032;2023-08-21T00:44:21;98671.59;;;22.24;76.37
40918;BME280;26644;50.248;19.032;2023-08-21T00:47:25;98663.78;;;22.17;76.71
40918;BME280;26644;50.248;19.032;2023-08-21T00:50:31;98660.19;;;22.04;76.85
40918;BME280;26644;50.248;19.032;2023-08-21T00:53:35;98662.53;;;22.02;77.08
40918;BME280;26644;50.248;19.032;2023-08-21T00:56:41;98667.88;;;21.95;77.70
40918;BME280;26644;50.248;19.032;2023-08-21T00:59:48;98672.78;;;21.98;77.82
40918;BME280;26644;50.248;19.032;2023-08-21T01:02:53;98679.06;;;21.95;77.64
40918;BME280;26644;50.248;19.032;2023-08-21T01:05:58;98667.44;;;21.93;77.70
40918;BME280;26644;50.248;19.032;2023-08-21T01:09:11;98678.72;;;21.97;77.93
40918;BME280;26644;50.248;19.032;2023-08-21T01:12:29;98673.13;;;21.97;77.68
40918;BME280;26644;50.248;19.032;2023-08-21T01:15:45;98683.13;;;21.98;77.61
40918;BME280;26644;50.248;19.032;2023-08-21T01:18:54;98684.78;;;21.99;77.57
40918;BME280;26644;50.248;19.032;2023-08-21T01:22:01;98679.53;;;21.97;77.50
40918;BME280;26644;50.248;19.032;2023-08-21T01:25:08;98679.53;;;21.97;77.54
40918;BME280;26644;50.248;19.032;2023-08-21T01:28:13;98679.41;;;21.94;77.93
40918;BME280;26644;50.248;19.032;2023-08-21T01:31:23;98676.63;;;21.94;78.08
40918;BME280;26644;50.248;19.032;2023-08-21T01:34:32;98680.56;;;21.92;78.03
40918;BME280;26644;50.248;19.032;2023-08-21T01:37:38;98673.34;;;21.91;78.19
40918;BME280;26644;50.248;19.032;2023-08-21T01:40:47;98668.25;;;21.94;77.91
40918;BME280;26644;50.248;19.032;2023-08-21T01:43:51;98682.22;;;21.94;77.91
40918;BME280;26644;50.248;19.032;2023-08-21T01:46:56;98672.19;;;21.92;77.81
40918;BME280;26644;50.248;19.032;2023-08-21T01:50:00;98672.53;;;21.91;77.83
40918;BME280;26644;50.248;19.032;2023-08-21T01:53:05;98662.06;;;21.88;77.83
40918;BME280;26644;50.248;19.032;2023-08-21T01:56:13;98660.53;;;21.78;77.48
40918;BME280;26644;50.248;19.032;2023-08-21T01:59:17;98668.31;;;21.72;77.39
40918;BME280;26644;50.248;19.032;2023-08-21T02:02:22;98665.63;;;21.64;77.59
40918;BME280;26644;50.248;19.032;2023-08-21T02:05:26;98659.59;;;21.49;77.75
40918;BME280;26644;50.248;19.032;2023-08-21T02:08:32;98660.25;;;21.46;77.99
40918;BME280;26644;50.248;19.032;2023-08-21T02:11:40;98660.81;;;21.39;78.35
40918;BME280;26644;50.248;19.032;2023-08-21T02:14:45;98660.25;;;21.34;78.72
40918;BME280;26644;50.248;19.032;2023-08-21T02:17:52;98655.13;;;21.36;78.84
40918;BME280;26644;50.248;19.032;2023-08-21T02:24:48;98651.59;;;21.26;79.24
40918;BME280;26644;50.248;19.032;2023-08-21T02:27:56;98649.50;;;21.23;79.59
40918;BME280;26644;50.248;19.032;2023-08-21T02:31:00;98647.06;;;21.22;79.53
40918;BME280;26644;50.248;19.032;2023-08-21T02:34:09;98648.22;;;21.21;79.58
40918;BME280;26644;50.248;19.032;2023-08-21T02:37:13;98642.19;;;21.19;79.55
40918;BME280;26644;50.248;19.032;2023-08-21T02:43:54;98636.34;;;21.12;79.43
40918;BME280;26644;50.248;19.032;2023-08-21T02:46:59;98631.31;;;21.05;79.70
40918;BME280;26644;50.248;19.032;2023-08-21T02:50:04;98616.16;;;20.93;79.98
40918;BME280;26644;50.248;19.032;2023-08-21T02:53:10;98630.91;;;20.94;80.28
40918;BME280;26644;50.248;19.032;2023-08-21T02:56:14;98621.13;;;20.88;80.40
40918;BME280;26644;50.248;19.032;2023-08-21T02:59:22;98629.19;;;20.89;80.47
40918;BME280;26644;50.248;19.032;2023-08-21T03:02:26;98624.13;;;20.83;80.51
40918;BME280;26644;50.248;19.032;2023-08-21T03:05:31;98629.97;;;20.90;80.12
40918;BME280;26644;50.248;19.032;2023-08-21T03:08:35;98630.91;;;20.94;79.95
40918;BME280;26644;50.248;19.032;2023-08-21T03:11:40;98636.78;;;21.01;79.95
40918;BME280;26644;50.248;19.032;2023-08-21T03:14:48;98634.34;;;21.00;79.73
40918;BME280;26644;50.248;19.032;2023-08-21T03:17:53;98626.31;;;20.98;79.82
40918;BME280;26644;50.248;19.032;2023-08-21T03:20:58;98642.84;;;21.03;79.79
40918;BME280;26644;50.248;19.032;2023-08-21T03:24:05;98649.56;;;21.02;79.33
40918;BME280;26644;50.248;19.032;2023-08-21T03:27:10;98651.22;;;21.03;79.83
40918;BME280;26644;50.248;19.032;2023-08-21T03:30:18;98664.13;;;21.08;79.43
40918;BME280;26644;50.248;19.032;2023-08-21T03:33:22;98652.97;;;21.08;79.53
40918;BME280;26644;50.248;19.032;2023-08-21T03:36:27;98660.66;;;21.11;79.00
40918;BME280;26644;50.248;19.032;2023-08-21T03:39:37;98659.59;;;21.03;78.97
40918;BME280;26644;50.248;19.032;2023-08-21T03:42:44;98663.88;;;21.01;78.77
40918;BME280;26644;50.248;19.032;2023-08-21T03:45:51;98652.94;;;20.96;78.97
40918;BME280;26644;50.248;19.032;2023-08-21T03:48:57;98654.56;;;20.97;79.06
40918;BME280;26644;50.248;19.032;2023-08-21T03:52:01;98649.94;;;21.01;79.14
40918;BME280;26644;50.248;19.032;2023-08-21T03:55:06;98651.22;;;21.03;79.03
40918;BME280;26644;50.248;19.032;2023-08-21T03:58:11;98649.72;;;21.06;78.65
40918;BME280;26644;50.248;19.032;2023-08-21T04:01:20;98644.81;;;21.03;78.64
40918;BME280;26644;50.248;19.032;2023-08-21T04:04:24;98640.44;;;20.93;78.98
40918;BME280;26644;50.248;19.032;2023-08-21T04:07:31;98651.22;;;21.03;79.04
40918;BME280;26644;50.248;19.032;2023-08-21T04:10:35;98655.06;;;21.11;78.91
40918;BME280;26644;50.248;19.032;2023-08-21T04:13:40;98653.22;;;21.15;78.72
40918;BME280;26644;50.248;19.032;2023-08-21T04:16:48;98657.53;;;21.25;78.49
40918;BME280;26644;50.248;19.032;2023-08-21T04:19:55;98656.41;;;21.38;78.31
40918;BME280;26644;50.248;19.032;2023-08-21T04:22:59;98652.50;;;21.52;77.84
40918;BME280;26644;50.248;19.032;2023-08-21T04:26:04;98657.94;;;21.73;77.37
40918;BME280;26644;50.248;19.032;2023-08-21T04:29:09;98650.66;;;21.81;76.76
40918;BME280;26644;50.248;19.032;2023-08-21T04:32:16;98656.13;;;22.02;76.24
40918;BME280;26644;50.248;19.032;2023-08-21T04:35:21;98647.47;;;22.19;75.62
40918;BME280;26644;50.248;19.032;2023-08-21T04:38:26;98638.00;;;22.36;75.04
40918;BME280;26644;50.248;19.032;2023-08-21T04:41:30;98631.72;;;22.39;74.10
40918;BME280;26644;50.248;19.032;2023-08-21T04:44:35;98641.25;;;22.51;73.96
40918;BME280;26644;50.248;19.032;2023-08-21T04:47:43;98637.75;;;22.41;73.63
40918;BME280;26644;50.248;19.032;2023-08-21T04:50:48;98656.06;;;22.51;73.67
40918;BME280;26644;50.248;19.032;2023-08-21T04:53:53;98653.13;;;22.60;73.93
40918;BME280;26644;50.248;19.032;2023-08-21T04:56:58;98658.56;;;22.69;73.52
40918;BME280;26644;50.248;19.032;2023-08-21T05:00:03;98657.34;;;22.82;73.21
40918;BME280;26644;50.248;19.032;2023-08-21T05:03:16;98664.81;;;23.06;72.78
40918;BME280;26644;50.248;19.032;2023-08-21T05:06:21;98663.22;;;23.21;72.19
40918;BME280;26644;50.248;19.032;2023-08-21T05:09:27;98662.81;;;23.35;71.93
40918;BME280;26644;50.248;19.032;2023-08-21T05:12:32;98653.00;;;23.41;71.55
40918;BME280;26644;50.248;19.032;2023-08-21T05:15:37;98654.06;;;23.53;71.07
40918;BME280;26644;50.248;19.032;2023-08-21T05:18:45;98662.31;;;23.62;70.83
40918;BME280;26644;50.248;19.032;2023-08-21T05:21:51;98666.75;;;23.63;70.73
40918;BME280;26644;50.248;19.032;2023-08-21T05:24:56;98672.88;;;23.68;71.02
40918;BME280;26644;50.248;19.032;2023-08-21T05:28:02;98671.13;;;23.80;70.99
40918;BME280;26644;50.248;19.032;2023-08-21T05:31:06;98662.03;;;23.99;69.82
40918;BME280;26644;50.248;19.032;2023-08-21T05:34:27;98669.13;;;24.28;69.43
40918;BME280;26644;50.248;19.032;2023-08-21T05:37:31;98668.56;;;24.58;68.51
40918;BME280;26644;50.248;19.032;2023-08-21T05:40:38;98682.94;;;24.92;67.67
40918;BME280;26644;50.248;19.032;2023-08-21T05:43:44;98684.91;;;25.11;66.47
40918;BME280;26644;50.248;19.032;2023-08-21T05:46:51;98694.19;;;25.31;66.28
40918;BME280;26644;50.248;19.032;2023-08-21T05:49:58;98699.03;;;25.57;65.42
40918;BME280;26644;50.248;19.032;2023-08-21T05:53:03;98688.56;;;25.78;63.98
40918;BME280;26644;50.248;19.032;2023-08-21T05:56:08;98701.44;;;26.02;62.61
40918;BME280;26644;50.248;19.032;2023-08-21T05:59:26;98705.78;;;26.22;61.65
40918;BME280;26644;50.248;19.032;2023-08-21T06:02:33;98710.19;;;26.50;60.34
40918;BME280;26644;50.248;19.032;2023-08-21T06:05:41;98703.63;;;26.66;59.66
40918;BME280;26644;50.248;19.032;2023-08-21T06:08:48;98705.00;;;26.79;59.36
40918;BME280;26644;50.248;19.032;2023-08-21T06:11:53;98711.06;;;26.81;58.55
40918;BME280;26644;50.248;19.032;2023-08-21T06:14:57;98716.19;;;26.76;58.69
40918;BME280;26644;50.248;19.032;2023-08-21T06:18:03;98727.84;;;26.74;58.68
40918;BME280;26644;50.248;19.032;2023-08-21T06:21:10;98725.88;;;26.75;58.79
40918;BME280;26644;50.248;19.032;2023-08-21T06:24:15;98730.91;;;26.62;59.10
40918;BME280;26644;50.248;19.032;2023-08-21T06:27:19;98733.50;;;26.47;59.12
40918;BME280;26644;50.248;19.032;2023-08-21T06:30:25;98739.19;;;26.24;59.44
40918;BME280;26644;50.248;19.032;2023-08-21T06:33:29;98743.00;;;26.12;60.05
40918;BME280;26644;50.248;19.032;2023-08-21T06:36:36;98746.66;;;25.93;61.02
40918;BME280;26644;50.248;19.032;2023-08-21T06:39:41;98748.22;;;25.90;61.01
40918;BME280;26644;50.248;19.032;2023-08-21T06:42:46;98752.69;;;25.68;61.41
40918;BME280;26644;50.248;19.032;2023-08-21T06:45:54;98745.94;;;25.53;62.21
40918;BME280;26644;50.248;19.032;2023-08-21T06:48:59;98744.06;;;25.38;62.23
40918;BME280;26644;50.248;19.032;2023-08-21T06:52:07;98759.69;;;25.35;62.74
40918;BME280;26644;50.248;19.032;2023-08-21T06:55:12;98760.41;;;25.32;63.03
40918;BME280;26644;50.248;19.032;2023-08-21T06:58:17;98767.22;;;25.31;63.38
40918;BME280;26644;50.248;19.032;2023-08-21T07:01:22;98778.09;;;25.33;63.11
40918;BME280;26644;50.248;19.032;2023-08-21T07:04:26;98774.81;;;25.31;63.61
40918;BME280;26644;50.248;19.032;2023-08-21T07:07:34;98781.78;;;25.37;63.61
40918;BME280;26644;50.248;19.032;2023-08-21T07:10:38;98775.28;;;25.33;62.49
40918;BME280;26644;50.248;19.032;2023-08-21T07:13:43;98780.97;;;25.36;62.58
40918;BME280;26644;50.248;19.032;2023-08-21T07:16:47;98786.75;;;25.44;62.54
40918;BME280;26644;50.248;19.032;2023-08-21T07:19:52;98766.56;;;25.38;62.25
40918;BME280;26644;50.248;19.032;2023-08-21T07:22:59;98774.91;;;25.34;62.75
40918;BME280;26644;50.248;19.032;2023-08-21T07:26:04;98788.50;;;25.32;62.74
40918;BME280;26644;50.248;19.032;2023-08-21T07:29:09;98783.34;;;25.34;62.86
40918;BME280;26644;50.248;19.032;2023-08-21T07:32:14;98787.84;;;25.39;62.99
40918;BME280;26644;50.248;19.032;2023-08-21T07:35:19;98789.47;;;25.40;62.95
40918;BME280;26644;50.248;19.032;2023-08-21T07:38:27;98783.75;;;25.36;62.96
40918;BME280;26644;50.248;19.032;2023-08-21T07:41:31;98789.47;;;25.40;63.01
40918;BME280;26644;50.248;19.032;2023-08-21T07:44:36;98797.81;;;25.36;63.54
40918;BME280;26644;50.248;19.032;2023-08-21T07:47:41;98792.66;;;25.38;63.84
40918;BME280;26644;50.248;19.032;2023-08-21T07:50:51;98798.28;;;25.38;63.47
40918;BME280;26644;50.248;19.032;2023-08-21T07:53:58;98793.91;;;25.41;64.01
40918;BME280;26644;50.248;19.032;2023-08-21T07:57:04;98794.00;;;25.45;63.62
40918;BME280;26644;50.248;19.032;2023-08-21T08:00:10;98793.09;;;25.40;64.09
40918;BME280;26644;50.248;19.032;2023-08-21T08:03:16;98801.59;;;25.44;64.16
40918;BME280;26644;50.248;19.032;2023-08-21T08:06:21;98788.28;;;25.41;64.19
40918;BME280;26644;50.248;19.032;2023-08-21T08:09:29;98789.16;;;25.45;64.51
40918;BME280;26644;50.248;19.032;2023-08-21T08:12:33;98787.53;;;25.44;64.23
40918;BME280;26644;50.248;19.032;2023-08-21T08:15:38;98794.56;;;25.54;64.06
40918;BME280;26644;50.248;19.032;2023-08-21T08:18:43;98780.22;;;25.59;64.24
40918;BME280;26644;50.248;19.032;2023-08-21T08:21:48;98782.97;;;25.79;63.51
40918;BME280;26644;50.248;19.032;2023-08-21T08:24:55;98780.69;;;25.84;63.25
40918;BME280;26644;50.248;19.032;2023-08-21T08:28:00;98785.63;;;25.91;63.08
40918;BME280;26644;50.248;19.032;2023-08-21T08:31:04;98780.31;;;26.09;62.69
40918;BME280;26644;50.248;19.032;2023-08-21T08:34:10;98769.47;;;26.34;62.58
40918;BME280;26644;50.248;19.032;2023-08-21T08:37:14;98782.50;;;26.69;61.13
40918;BME280;26644;50.248;19.032;2023-08-21T08:40:22;98788.84;;;26.89;60.41
40918;BME280;26644;50.248;19.032;2023-08-21T08:43:27;98795.47;;;27.04;59.77
40918;BME280;26644;50.248;19.032;2023-08-21T08:46:35;98787.00;;;27.04;59.72
40918;BME280;26644;50.248;19.032;2023-08-21T08:49:40;98798.00;;;27.13;59.83
40918;BME280;26644;50.248;19.032;2023-08-21T08:52:46;98804.50;;;27.17;59.42
40918;BME280;26644;50.248;19.032;2023-08-21T08:55:53;98798.53;;;27.22;59.20
40918;BME280;26644;50.248;19.032;2023-08-21T08:58:58;98794.69;;;27.34;59.01
40918;BME280;26644;50.248;19.032;2023-08-21T09:02:03;98808.63;;;27.58;58.57
40918;BME280;26644;50.248;19.032;2023-08-21T09:05:08;98803.66;;;27.81;58.04
40918;BME280;26644;50.248;19.032;2023-08-21T09:08:14;98798.69;;;28.05;57.65
40918;BME280;26644;50.248;19.032;2023-08-21T09:11:22;98792.38;;;28.71;55.65
40918;BME280;26644;50.248;19.032;2023-08-21T09:14:29;98791.28;;;28.94;54.79
40918;BME280;26644;50.248;19.032;2023-08-21T09:17:34;98773.16;;;29.02;54.61
40918;BME280;26644;50.248;19.032;2023-08-21T09:20:39;98779.31;;;29.18;54.55
40918;BME280;26644;50.248;19.032;2023-08-21T09:23:44;98781.03;;;29.48;54.32
40918;BME280;26644;50.248;19.032;2023-08-21T09:26:52;98776.31;;;29.88;53.34
40918;BME280;26644;50.248;19.032;2023-08-21T09:29:58;98771.06;;;30.12;52.35
40918;BME280;26644;50.248;19.032;2023-08-21T09:33:03;98771.47;;;30.11;51.59
40918;BME280;26644;50.248;19.032;2023-08-21T09:36:10;98787.25;;;30.01;51.33
40918;BME280;26644;50.248;19.032;2023-08-21T09:39:15;98782.78;;;29.93;52.50
40918;BME280;26644;50.248;19.032;2023-08-21T09:42:24;98775.53;;;30.57;51.63
40918;BME280;26644;50.248;19.032;2023-08-21T09:45:28;98777.38;;;31.35;49.29
40918;BME280;26644;50.248;19.032;2023-08-21T09:48:35;98766.84;;;32.03;48.38
40918;BME280;26644;50.248;19.032;2023-08-21T09:51:41;98765.81;;;32.77;46.02
40918;BME280;26644;50.248;19.032;2023-08-21T09:54:46;98759.97;;;33.26;44.84
40918;BME280;26644;50.248;19.032;2023-08-21T09:57:56;98760.50;;;33.48;44.70
40918;BME280;26644;50.248;19.032;2023-08-21T10:01:06;98757.47;;;33.62;43.26
40918;BME280;26644;50.248;19.032;2023-08-21T10:04:13;98775.13;;;33.77;44.05
40918;BME280;26644;50.248;19.032;2023-08-21T10:07:22;98779.81;;;33.91;43.29
40918;BME280;26644;50.248;19.032;2023-08-21T10:10:32;98774.72;;;34.06;42.48
40918;BME280;26644;50.248;19.032;2023-08-21T10:13:42;98774.63;;;34.13;42.14
40918;BME280;26644;50.248;19.032;2023-08-21T10:16:47;98775.19;;;34.28;42.08
40918;BME280;26644;50.248;19.032;2023-08-21T10:19:52;98774.78;;;34.26;42.14
40918;BME280;26644;50.248;19.032;2023-08-21T10:23:01;98768.22;;;34.06;41.96
40918;BME280;26644;50.248;19.032;2023-08-21T10:26:09;98771.38;;;34.11;41.95
40918;BME280;26644;50.248;19.032;2023-08-21T10:29:16;98760.28;;;34.17;40.93
40918;BME280;26644;50.248;19.032;2023-08-21T10:32:22;98753.44;;;33.87;40.76
40918;BME280;26644;50.248;19.032;2023-08-21T10:35:29;98758.59;;;33.68;41.51
40918;BME280;26644;50.248;19.032;2023-08-21T10:38:58;98771.44;;;33.18;42.63
40918;BME280;26644;50.248;19.032;2023-08-21T10:42:06;98763.66;;;32.84;44.14
40918;BME280;26644;50.248;19.032;2023-08-21T10:45:18;98759.25;;;32.42;45.18
40918;BME280;26644;50.248;19.032;2023-08-21T10:48:22;98747.56;;;31.76;45.89
40918;BME280;26644;50.248;19.032;2023-08-21T10:51:29;98756.28;;;31.29;47.47
40918;BME280;26644;50.248;19.032;2023-08-21T10:54:43;98752.00;;;30.89;48.93
40918;BME280;26644;50.248;19.032;2023-08-21T10:57:49;98747.22;;;30.53;49.61
40918;BME280;26644;50.248;19.032;2023-08-21T11:00:59;98731.44;;;30.16;50.08
40918;BME280;26644;50.248;19.032;2023-08-21T11:04:05;98743.16;;;29.96;50.53
40918;BME280;26644;50.248;19.032;2023-08-21T11:07:09;98723.38;;;29.78;50.69
40918;BME280;26644;50.248;19.032;2023-08-21T11:10:16;98723.28;;;29.57;51.55
40918;BME280;26644;50.248;19.032;2023-08-21T11:13:23;98720.84;;;29.44;52.09
40918;BME280;26644;50.248;19.032;2023-08-21T11:16:31;98707.06;;;29.28;51.79
40918;BME280;26644;50.248;19.032;2023-08-21T11:19:37;98722.03;;;29.32;52.00
40918;BME280;26644;50.248;19.032;2023-08-21T11:22:42;98723.22;;;29.31;52.65
40918;BME280;26644;50.248;19.032;2023-08-21T11:25:46;98713.53;;;29.29;52.94
40918;BME280;26644;50.248;19.032;2023-08-21T11:28:52;98722.41;;;29.27;53.88
40918;BME280;26644;50.248;19.032;2023-08-21T11:31:58;98722.41;;;29.27;54.25
40918;BME280;26644;50.248;19.032;2023-08-21T11:35:05;98727.25;;;29.30;54.51
40918;BME280;26644;50.248;19.032;2023-08-21T11:38:15;98732.53;;;29.39;54.28
40918;BME280;26644;50.248;19.032;2023-08-21T11:41:21;98730.53;;;29.43;53.64
40918;BME280;26644;50.248;19.032;2023-08-21T11:44:25;98722.88;;;29.44;53.96
40918;BME280;26644;50.248;19.032;2023-08-21T11:47:34;98734.59;;;29.53;53.56
40918;BME280;26644;50.248;19.032;2023-08-21T11:50:39;98721.66;;;29.52;53.43
40918;BME280;26644;50.248;19.032;2023-08-21T11:53:47;98729.78;;;29.64;53.90
40918;BME280;26644;50.248;19.032;2023-08-21T11:56:53;98718.09;;;29.73;53.74
40918;BME280;26644;50.248;19.032;2023-08-21T11:59:58;98714.84;;;29.71;53.23
40918;BME280;26644;50.248;19.032;2023-08-21T12:03:05;98723.34;;;29.85;53.44
40918;BME280;26644;50.248;19.032;2023-08-21T12:06:12;98719.72;;;29.92;53.64
40918;BME280;26644;50.248;19.032;2023-08-21T12:09:16;98726.56;;;30.02;51.60
40918;BME280;26644;50.248;19.032;2023-08-21T12:12:22;98728.22;;;29.96;51.65
40918;BME280;26644;50.248;19.032;2023-08-21T12:15:27;98723.38;;;29.89;51.88
40918;BME280;26644;50.248;19.032;2023-08-21T12:18:35;98731.44;;;30.01;51.80
40918;BME280;26644;50.248;19.032;2023-08-21T12:21:39;98728.22;;;29.99;51.26
40918;BME280;26644;50.248;19.032;2023-08-21T12:24:44;98733.88;;;29.96;51.44
40918;BME280;26644;50.248;19.032;2023-08-21T12:27:48;98723.38;;;29.89;50.55
40918;BME280;26644;50.248;19.032;2023-08-21T12:30:53;98729.81;;;29.82;50.78
40918;BME280;26644;50.248;19.032;2023-08-21T12:34:00;98722.94;;;29.80;51.48
40918;BME280;26644;50.248;19.032;2023-08-21T12:37:05;98725.38;;;29.70;50.13
40918;BME280;26644;50.248;19.032;2023-08-21T12:40:10;98726.53;;;29.59;49.96
40918;BME280;26644;50.248;19.032;2023-08-21T12:47:24;98719.63;;;29.52;51.30
40918;BME280;26644;50.248;19.032;2023-08-21T12:50:32;98700.22;;;29.40;51.76
40918;BME280;26644;50.248;19.032;2023-08-21T12:53:36;98699.41;;;29.36;51.96
40918;BME280;26644;50.248;19.032;2023-08-21T12:56:41;98703.88;;;29.44;52.24
40918;BME280;26644;50.248;19.032;2023-08-21T12:59:45;98698.59;;;29.46;51.78
40918;BME280;26644;50.248;19.032;2023-08-21T13:02:50;98680.44;;;29.40;51.83
40918;BME280;26644;50.248;19.032;2023-08-21T13:05:57;98681.22;;;29.37;51.18
40918;BME280;26644;50.248;19.032;2023-08-21T13:09:02;98677.59;;;29.36;51.62
40918;BME280;26644;50.248;19.032;2023-08-21T13:12:07;98682.84;;;29.34;51.73
40918;BME280;26644;50.248;19.032;2023-08-21T13:15:12;98675.59;;;29.41;52.07
40918;BME280;26644;50.248;19.032;2023-08-21T13:18:17;98673.56;;;29.45;52.43
40918;BME280;26644;50.248;19.032;2023-08-21T13:21:24;98666.69;;;29.46;51.78
40918;BME280;26644;50.248;19.032;2023-08-21T13:24:29;98664.28;;;29.48;51.62
40918;BME280;26644;50.248;19.032;2023-08-21T13:27:34;98652.16;;;29.36;51.26
40918;BME280;26644;50.248;19.032;2023-08-21T13:30:38;98651.34;;;29.32;51.34
40918;BME280;26644;50.248;19.032;2023-08-21T13:33:46;98645.66;;;29.29;51.24
40918;BME280;26644;50.248;19.032;2023-08-21T13:36:53;98652.16;;;29.40;51.98
40918;BME280;26644;50.248;19.032;2023-08-21T13:39:58;98642.47;;;29.41;51.88
40918;BME280;26644;50.248;19.032;2023-08-21T13:43:10;98647.72;;;29.50;51.63
40918;BME280;26644;50.248;19.032;2023-08-21T13:46:15;98642.06;;;29.50;51.28
40918;BME280;26644;50.248;19.032;2023-08-21T13:49:20;98651.75;;;29.49;51.15
40918;BME280;26644;50.248;19.032;2023-08-21T13:52:27;98644.88;;;29.50;51.51
40918;BME280;26644;50.248;19.032;2023-08-21T13:55:32;98638.81;;;29.51;51.36
40918;BME280;26644;50.248;19.032;2023-08-21T13:58:37;98638.81;;;29.51;50.80
40918;BME280;26644;50.248;19.032;2023-08-21T14:01:41;98630.75;;;29.53;50.98
40918;BME280;26644;50.248;19.032;2023-08-21T14:04:47;98626.72;;;29.54;50.54
40918;BME280;26644;50.248;19.032;2023-08-21T14:07:54;98640.06;;;29.58;50.14
40918;BME280;26644;50.248;19.032;2023-08-21T14:10:59;98629.53;;;29.58;50.30
40918;BME280;26644;50.248;19.032;2023-08-21T14:14:03;98628.31;;;29.59;50.26
40918;BME280;26644;50.248;19.032;2023-08-21T14:17:08;98621.03;;;29.58;50.28
40918;BME280;26644;50.248;19.032;2023-08-21T14:20:12;98619.84;;;29.55;50.06
40918;BME280;26644;50.248;19.032;2023-08-21T14:23:20;98613.38;;;29.48;50.21
40918;BME280;26644;50.248;19.032;2023-08-21T14:26:24;98619.44;;;29.57;49.90
40918;BME280;26644;50.248;19.032;2023-08-21T14:29:29;98606.50;;;29.52;49.89
40918;BME280;26644;50.248;19.032;2023-08-21T14:32:33;98606.50;;;29.52;50.21
40918;BME280;26644;50.248;19.032;2023-08-21T14:35:39;98612.59;;;29.54;50.14
40918;BME280;26644;50.248;19.032;2023-08-21T14:38:45;98611.75;;;29.58;50.48
40918;BME280;26644;50.248;19.032;2023-08-21T14:41:54;98611.34;;;29.59;50.10
40918;BME280;26644;50.248;19.032;2023-08-21T14:44:58;98604.06;;;29.58;50.45
40918;BME280;26644;50.248;19.032;2023-08-21T14:48:04;98589.13;;;29.58;50.48
40918;BME280;26644;50.248;19.032;2023-08-21T14:51:08;98604.09;;;29.73;50.66
40918;BME280;26644;50.248;19.032;2023-08-21T14:54:16;98593.59;;;29.80;50.50
40918;BME280;26644;50.248;19.032;2023-08-21T14:57:20;98598.03;;;29.81;50.30
40918;BME280;26644;50.248;19.032;2023-08-21T15:00:25;98592.78;;;29.80;50.20
40918;BME280;26644;50.248;19.032;2023-08-21T15:03:29;98587.53;;;29.82;50.20
40918;BME280;26644;50.248;19.032;2023-08-21T15:06:35;98589.97;;;29.80;50.22
40918;BME280;26644;50.248;19.032;2023-08-21T15:09:43;98585.50;;;29.79;50.21
40918;BME280;26644;50.248;19.032;2023-08-21T15:12:49;98597.22;;;29.84;50.53
40918;BME280;26644;50.248;19.032;2023-08-21T15:15:53;98593.59;;;29.80;50.43
40918;BME280;26644;50.248;19.032;2023-08-21T15:18:58;98583.09;;;29.74;50.84
40918;BME280;26644;50.248;19.032;2023-08-21T15:22:02;98587.53;;;29.75;50.75
40918;BME280;26644;50.248;19.032;2023-08-21T15:25:10;98587.94;;;29.69;50.54
40918;BME280;26644;50.248;19.032;2023-08-21T15:28:14;98596.03;;;29.67;50.58
40918;BME280;26644;50.248;19.032;2023-08-21T15:40:59;98608.94;;;29.65;51.09
40918;BME280;26644;50.248;19.032;2023-08-21T15:48:37;98588.31;;;29.50;52.07
40918;BME280;26644;50.248;19.032;2023-08-21T15:51:44;98584.31;;;29.44;51.92
40918;BME280;26644;50.248;19.032;2023-08-21T15:54:49;98589.53;;;29.38;51.72
40918;BME280;26644;50.248;19.032;2023-08-21T15:57:57;98579.03;;;29.28;51.77
40918;BME280;26644;50.248;19.032;2023-08-21T16:01:01;98577.41;;;29.19;51.87
40918;BME280;26644;50.248;19.032;2023-08-21T16:04:06;98587.50;;;29.20;51.99
40918;BME280;26644;50.248;19.032;2023-08-21T16:07:10;98587.09;;;29.18;52.28
40918;BME280;26644;50.248;19.032;2023-08-21T16:10:15;98588.31;;;29.17;52.24
40918;BME280;26644;50.248;19.032;2023-08-21T16:13:22;98591.16;;;29.17;52.17
40918;BME280;26644;50.248;19.032;2023-08-21T16:16:27;98596.00;;;29.13;52.12
40918;BME280;26644;50.248;19.032;2023-08-21T16:19:31;98584.25;;;29.08;52.42
40918;BME280;26644;50.248;19.032;2023-08-21T16:22:38;98587.91;;;29.08;53.22
40918;BME280;26644;50.248;19.032;2023-08-21T16:25:42;98586.63;;;29.02;54.08
40918;BME280;26644;50.248;19.032;2023-08-21T16:28:49;98572.47;;;28.87;54.70
40918;BME280;26644;50.248;19.032;2023-08-21T16:31:53;98587.44;;;28.95;55.33
40918;BME280;26644;50.248;19.032;2023-08-21T16:34:58;98591.03;;;28.85;55.68
40918;BME280;26644;50.248;19.032;2023-08-21T16:38:03;98587.78;;;28.79;56.13